createdAt,value
2017-09-15T00:01:38.315Z,99880.63
2017-09-15T00:04:11.029Z,99891.05
2017-09-15T00:06:43.094Z,99896.72
2017-09-15T00:09:26.068Z,99901.41
2017-09-15T00:11:58.766Z,99895.91
2017-09-15T00:14:31.567Z,99909.36
2017-09-15T00:17:04.041Z,99910.30
2017-09-15T00:19:38.249Z,99916.84
2017-09-15T00:22:10.317Z,99918.59
2017-09-15T00:24:42.990Z,99919.55
2017-09-15T00:27:16.283Z,99922.70
2017-09-15T00:29:48.286Z,99923.52
2017-09-15T00:32:21.443Z,99930.90
2017-09-15T00:34:54.452Z,99936.98
2017-09-15T00:37:25.418Z,99936.41
2017-09-15T00:40:02.276Z,99937.69
2017-09-15T00:42:36.105Z,99933.47
2017-09-15T00:45:08.522Z,99939.45
2017-09-15T00:47:40.380Z,99939.80
2017-09-15T00:50:09.565Z,99947.06
2017-09-15T00:52:42.505Z,99954.95
2017-09-15T00:55:16.244Z,99958.77
2017-09-15T00:57:52.517Z,99967.37
2017-09-15T01:00:23.670Z,99965.26
2017-09-15T01:02:56.367Z,99968.96
2017-09-15T01:05:29.820Z,99968.81
2017-09-15T01:08:01.165Z,99970.98
2017-09-15T01:10:35.217Z,99978.66
2017-09-15T01:13:08.586Z,99975.72
2017-09-15T01:15:42.105Z,99984.63
2017-09-15T01:18:13.114Z,99983.75
2017-09-15T01:20:45.821Z,99988.95
2017-09-15T01:23:19.472Z,99994.47
2017-09-15T01:25:51.466Z,99993.53
2017-09-15T01:28:24.331Z,99991.42
2017-09-15T01:30:55.372Z,99999.09
2017-09-15T01:33:26.664Z,99989.67
2017-09-15T01:35:58.355Z,99998.06
2017-09-15T01:38:32.098Z,100000.50
2017-09-15T01:41:04.868Z,100011.80
2017-09-15T01:43:38.092Z,100016.48
2017-09-15T01:46:11.599Z,100019.00
2017-09-15T01:48:43.787Z,100026.21
2017-09-15T01:51:16.533Z,100034.24
2017-09-15T01:53:47.691Z,100032.76
2017-09-15T01:56:19.907Z,100045.30
2017-09-15T01:58:53.811Z,100040.67
2017-09-15T02:01:26.343Z,100049.33
2017-09-15T02:04:04.351Z,100050.66
2017-09-15T02:06:39.321Z,100053.34
2017-09-15T02:09:13.233Z,100061.55
2017-09-15T02:11:49.060Z,100062.47
2017-09-15T02:14:20.333Z,100066.03
2017-09-15T02:16:51.967Z,100066.55
2017-09-15T02:19:26.632Z,100068.30
2017-09-15T02:21:59.175Z,100066.67
2017-09-15T02:24:31.623Z,100071.41
2017-09-15T02:27:05.633Z,100070.47
2017-09-15T02:29:36.017Z,100074.79
2017-09-15T02:32:06.236Z,100073.65
2017-09-15T02:34:35.825Z,100077.52
2017-09-15T02:37:10.113Z,100080.42
2017-09-15T02:39:42.392Z,100087.69
2017-09-15T02:42:14.451Z,100090.01
2017-09-15T02:44:47.717Z,100096.34
2017-09-15T02:47:19.431Z,100104.82
2017-09-15T02:49:51.422Z,100098.45
2017-09-15T02:52:22.995Z,100103.61
2017-09-15T02:54:55.543Z,100105.30
2017-09-15T02:57:28.231Z,100100.72
2017-09-15T03:00:01.862Z,100100.41
2017-09-15T03:02:33.850Z,100112.57
2017-09-15T03:05:06.183Z,100120.41
2017-09-15T03:07:37.779Z,100121.38
2017-09-15T03:10:11.529Z,100121.92
2017-09-15T03:12:45.000Z,100133.20
2017-09-15T03:15:16.937Z,100132.83
2017-09-15T03:17:49.383Z,100137.27
2017-09-15T03:20:20.310Z,100132.22
2017-09-15T03:22:52.052Z,100138.75
2017-09-15T03:25:23.504Z,100136.65
2017-09-15T03:27:55.433Z,100134.70
2017-09-15T03:30:27.920Z,100134.66
2017-09-15T03:33:00.579Z,100135.27
2017-09-15T03:35:34.527Z,100132.23
2017-09-15T03:38:05.146Z,100140.16
2017-09-15T03:40:40.256Z,100142.02
2017-09-15T03:43:13.660Z,100147.27
2017-09-15T03:45:46.544Z,100153.29
2017-09-15T03:48:18.810Z,100148.67
2017-09-15T03:50:51.627Z,100154.91
2017-09-15T03:53:25.887Z,100154.28
2017-09-15T03:55:58.354Z,100154.74
2017-09-15T03:58:31.584Z,100156.34
2017-09-15T04:01:07.446Z,100163.80
2017-09-15T04:03:38.608Z,100166.47
2017-09-15T04:06:13.331Z,100168.49
2017-09-15T04:08:48.070Z,100180.84
2017-09-15T04:11:18.470Z,100193.25
2017-09-15T04:13:51.680Z,100187.89
2017-09-15T04:16:27.684Z,100198.65
2017-09-15T04:18:59.606Z,100200.30
2017-09-15T04:21:33.312Z,100203.65
2017-09-15T04:24:06.057Z,100208.80
2017-09-15T04:26:39.081Z,100203.84
2017-09-15T04:29:14.798Z,100208.78
2017-09-15T04:31:44.826Z,100204.66
2017-09-15T04:34:15.118Z,100210.98
2017-09-15T04:36:45.630Z,100205.06
2017-09-15T04:39:17.236Z,100208.61
2017-09-15T04:41:48.197Z,100208.62
2017-09-15T04:44:20.360Z,100212.78
2017-09-15T04:46:52.146Z,100214.94
2017-09-15T04:49:27.247Z,100205.94
2017-09-15T04:52:00.406Z,100213.29
2017-09-15T04:54:32.747Z,100201.78
2017-09-15T04:57:04.747Z,100206.15
2017-09-15T04:59:34.999Z,100198.53
2017-09-15T05:02:07.461Z,100198.14
2017-09-15T05:04:41.622Z,100202.81
2017-09-15T05:07:15.468Z,100204.61
2017-09-15T05:09:51.411Z,100206.83
2017-09-15T05:12:23.704Z,100205.63
2017-09-15T05:14:57.109Z,100208.66
2017-09-15T05:17:28.983Z,100207.02
2017-09-15T05:20:01.780Z,100207.52
2017-09-15T05:22:35.587Z,100208.86
2017-09-15T05:25:09.662Z,100210.75
2017-09-15T05:27:42.362Z,100217.13
2017-09-15T05:30:15.383Z,100213.32
2017-09-15T05:32:48.842Z,100216.42
2017-09-15T05:35:20.766Z,100215.23
2017-09-15T05:37:54.135Z,100221.20
2017-09-15T05:40:25.757Z,100216.88
2017-09-15T05:42:58.697Z,100209.63
2017-09-15T05:45:31.534Z,100208.80
2017-09-15T05:48:08.319Z,100214.41
2017-09-15T05:50:39.301Z,100221.80
2017-09-15T05:53:11.749Z,100223.87
2017-09-15T05:55:42.556Z,100227.73
2017-09-15T05:58:15.487Z,100231.53
2017-09-15T06:00:47.967Z,100228.50
2017-09-15T06:03:19.910Z,100232.36
2017-09-15T06:05:53.290Z,100235.70
2017-09-15T06:08:25.533Z,100245.17
2017-09-15T06:10:58.679Z,100245.36
2017-09-15T06:13:35.244Z,100242.52
2017-09-15T06:16:07.981Z,100239.30
2017-09-15T06:18:39.874Z,100244.19
2017-09-15T06:21:11.796Z,100250.46
2017-09-15T06:23:43.405Z,100247.74
2017-09-15T06:26:14.916Z,100252.11
2017-09-15T06:28:46.947Z,100254.22
2017-09-15T06:31:21.478Z,100251.28
2017-09-15T06:33:53.993Z,100260.14
2017-09-15T06:36:25.130Z,100260.55
2017-09-15T06:38:56.746Z,100259.11
2017-09-15T06:41:30.996Z,100266.68
2017-09-15T06:44:03.586Z,100261.95
2017-09-15T06:46:36.488Z,100270.49
2017-09-15T06:49:08.115Z,100273.80
2017-09-15T06:51:39.576Z,100272.83
2017-09-15T06:54:12.107Z,100277.86
2017-09-15T06:56:43.113Z,100277.30
2017-09-15T06:59:13.366Z,100284.86
2017-09-15T07:01:45.698Z,100286.52
2017-09-15T07:04:18.633Z,100285.50
2017-09-15T07:06:50.231Z,100290.02
2017-09-15T07:09:23.126Z,100288.49
2017-09-15T07:11:55.511Z,100288.76
2017-09-15T07:14:28.634Z,100293.23
2017-09-15T07:17:02.194Z,100296.03
2017-09-15T07:19:35.962Z,100306.59
2017-09-15T07:22:08.338Z,100305.98
2017-09-15T07:24:42.806Z,100308.46
2017-09-15T07:27:15.808Z,100312.52
2017-09-15T07:29:47.231Z,100312.94
2017-09-15T07:32:19.247Z,100313.71
2017-09-15T07:34:51.674Z,100320.05
2017-09-15T07:37:24.839Z,100323.81
2017-09-15T07:39:59.235Z,100329.23
2017-09-15T07:42:30.999Z,100327.00
2017-09-15T07:45:05.940Z,100332.88
2017-09-15T07:47:38.572Z,100334.89
2017-09-15T07:50:10.906Z,100327.48
2017-09-15T07:52:44.651Z,100326.10
2017-09-15T07:55:21.343Z,100330.58
2017-09-15T07:57:53.592Z,100339.44
2017-09-15T08:00:26.688Z,100336.11
2017-09-15T08:02:58.785Z,100338.52
2017-09-15T08:05:35.034Z,100338.73
2017-09-15T08:08:08.955Z,100341.58
2017-09-15T08:10:39.808Z,100334.92
2017-09-15T08:13:12.880Z,100343.22
2017-09-15T08:15:42.612Z,100335.81
2017-09-15T08:18:15.682Z,100332.52
2017-09-15T08:20:47.929Z,100349.05
2017-09-15T08:23:21.090Z,100343.34
2017-09-15T08:25:53.249Z,100345.20
2017-09-15T08:28:26.352Z,100350.13
2017-09-15T08:30:57.665Z,100348.54
2017-09-15T08:33:31.725Z,100351.63
2017-09-15T08:36:01.957Z,100351.38
2017-09-15T08:38:37.203Z,100356.15
2017-09-15T08:41:10.315Z,100347.28
2017-09-15T08:43:45.096Z,100347.39
2017-09-15T08:46:18.515Z,100347.84
2017-09-15T08:48:50.013Z,100347.12
2017-09-15T08:51:25.000Z,100340.02
2017-09-15T08:54:00.124Z,100347.75
2017-09-15T08:56:31.738Z,100347.36
2017-09-15T08:59:03.664Z,100346.07
2017-09-15T09:01:38.209Z,100349.14
2017-09-15T09:04:10.297Z,100348.30
2017-09-15T09:06:43.483Z,100344.35
2017-09-15T09:09:14.827Z,100363.47
2017-09-15T09:11:45.986Z,100353.96
2017-09-15T09:14:19.042Z,100357.48
2017-09-15T09:16:47.712Z,100355.36
2017-09-15T09:19:16.360Z,100357.48
2017-09-15T09:21:49.792Z,100352.31
2017-09-15T09:24:26.109Z,100349.49
2017-09-15T09:26:59.755Z,100348.64
2017-09-15T09:29:31.095Z,100352.33
2017-09-15T09:32:02.755Z,100367.39
2017-09-15T09:37:23.184Z,100371.81
2017-09-15T09:39:56.227Z,100370.70
2017-09-15T09:42:30.987Z,100368.47
2017-09-15T09:45:05.011Z,100367.89
2017-09-15T09:47:38.091Z,100368.44
2017-09-15T09:50:12.028Z,100372.31
2017-09-15T09:52:45.158Z,100381.64
2017-09-15T09:55:17.626Z,100378.42
2017-09-15T09:57:50.322Z,100374.69
2017-09-15T10:00:24.091Z,100366.41
2017-09-15T10:02:58.112Z,100370.08
2017-09-15T10:05:37.075Z,100367.52
2017-09-15T10:08:10.590Z,100376.37
2017-09-15T10:10:44.869Z,100373.56
2017-09-15T10:13:18.102Z,100377.58
2017-09-15T10:15:50.232Z,100373.23
2017-09-15T10:18:23.647Z,100374.52
2017-09-15T10:20:54.888Z,100377.05
2017-09-15T10:23:26.079Z,100379.69
2017-09-15T10:25:58.890Z,100373.23
2017-09-15T10:28:35.262Z,100373.51
2017-09-15T10:31:08.597Z,100381.97
2017-09-15T10:33:45.566Z,100377.87
2017-09-15T10:36:18.001Z,100377.92
2017-09-15T10:38:50.708Z,100378.28
2017-09-15T10:41:24.394Z,100375.23
2017-09-15T10:43:58.489Z,100378.99
2017-09-15T10:46:30.445Z,100384.98
2017-09-15T10:49:01.715Z,100378.41
2017-09-15T10:51:34.874Z,100372.42
2017-09-15T10:54:06.430Z,100364.78
2017-09-15T10:56:39.338Z,100369.37
2017-09-15T10:59:16.870Z,100368.41
2017-09-15T11:01:48.362Z,100370.99
2017-09-15T11:04:23.066Z,100375.24
2017-09-15T11:06:56.093Z,100374.19
2017-09-15T11:09:26.991Z,100374.66
2017-09-15T11:11:59.983Z,100366.91
2017-09-15T11:14:36.532Z,100366.44
2017-09-15T11:17:10.102Z,100361.68
2017-09-15T11:19:43.311Z,100365.36
2017-09-15T11:22:14.850Z,100361.31
2017-09-15T11:24:45.200Z,100361.20
2017-09-15T11:27:18.255Z,100362.55
2017-09-15T11:29:50.467Z,100345.22
2017-09-15T11:32:21.707Z,100352.28
2017-09-15T11:34:54.553Z,100358.21
2017-09-15T11:37:27.279Z,100351.34
2017-09-15T11:40:01.926Z,100353.31
2017-09-15T11:42:35.033Z,100353.50
2017-09-15T11:45:10.394Z,100362.08
2017-09-15T11:47:44.642Z,100359.15
2017-09-15T11:50:18.328Z,100362.06
2017-09-15T11:52:52.227Z,100348.25
2017-09-15T11:55:25.428Z,100355.84
2017-09-15T11:57:57.617Z,100354.42
2017-09-15T12:00:29.790Z,100341.67
2017-09-15T12:03:01.440Z,100343.06
2017-09-15T12:05:35.192Z,100342.01
2017-09-15T12:08:07.856Z,100347.83
2017-09-15T12:10:40.548Z,100344.12
2017-09-15T12:13:16.101Z,100345.34
2017-09-15T12:15:48.835Z,100342.16
2017-09-15T12:18:21.449Z,100340.41
2017-09-15T12:20:54.078Z,100339.75
2017-09-15T12:23:28.076Z,100340.81
2017-09-15T12:26:03.739Z,100343.66
2017-09-15T12:28:38.209Z,100347.66
2017-09-15T12:31:08.900Z,100346.20
2017-09-15T12:33:41.677Z,100346.25
2017-09-15T12:36:13.678Z,100338.96
2017-09-15T12:38:45.497Z,100343.43
2017-09-15T12:41:16.753Z,100342.78
2017-09-15T12:43:50.265Z,100344.78
2017-09-15T12:46:24.769Z,100339.72
2017-09-15T12:48:59.243Z,100346.42
2017-09-15T12:51:33.711Z,100339.41
2017-09-15T12:54:06.727Z,100342.88
2017-09-15T12:56:39.699Z,100342.88
2017-09-15T12:59:16.605Z,100335.87
2017-09-15T13:01:48.970Z,100340.41
2017-09-15T13:04:21.539Z,100339.05
2017-09-15T13:06:54.173Z,100345.78
2017-09-15T13:09:25.880Z,100341.84
2017-09-15T13:11:58.684Z,100342.13
2017-09-15T13:14:33.752Z,100342.11
2017-09-15T13:17:09.607Z,100335.05
2017-09-15T13:19:42.037Z,100334.52
2017-09-15T13:22:15.267Z,100337.33
2017-09-15T13:24:49.385Z,100333.62
2017-09-15T13:27:21.106Z,100330.83
2017-09-15T13:29:54.602Z,100328.17
2017-09-15T13:32:26.246Z,100328.87
2017-09-15T13:35:00.565Z,100324.70
2017-09-15T13:37:33.150Z,100326.99
2017-09-15T13:40:07.162Z,100331.45
2017-09-15T13:42:38.292Z,100321.84
2017-09-15T13:45:08.912Z,100318.47
2017-09-15T13:47:42.195Z,100323.65
2017-09-15T13:50:13.917Z,100320.12
2017-09-15T13:52:46.605Z,100323.47
2017-09-15T13:55:19.746Z,100323.34
2017-09-15T13:57:50.637Z,100321.31
2017-09-15T14:00:24.796Z,100323.89
2017-09-15T14:02:59.039Z,100326.02
2017-09-15T14:05:31.119Z,100320.42
2017-09-15T14:08:01.420Z,100326.42
2017-09-15T14:10:37.652Z,100323.13
2017-09-15T14:13:08.288Z,100328.66
2017-09-15T14:15:40.361Z,100314.07
2017-09-15T14:18:11.827Z,100323.28
2017-09-15T14:20:44.294Z,100313.11
2017-09-15T14:23:17.459Z,100308.94
2017-09-15T14:25:49.772Z,100306.58
2017-09-15T14:28:21.497Z,100307.40
2017-09-15T14:30:50.821Z,100304.22
2017-09-15T14:33:23.757Z,100299.77
2017-09-15T14:35:59.268Z,100303.58
2017-09-15T14:38:33.854Z,100302.48
2017-09-15T14:41:09.045Z,100296.97
2017-09-15T14:43:45.145Z,100291.11
2017-09-15T14:46:20.018Z,100284.80
2017-09-15T14:48:51.224Z,100288.44
2017-09-15T14:51:23.338Z,100288.69
2017-09-15T14:53:58.007Z,100284.74
2017-09-15T14:56:31.879Z,100284.69
2017-09-15T14:59:04.891Z,100287.44
2017-09-15T15:01:35.096Z,100280.48
2017-09-15T15:04:07.945Z,100282.06
2017-09-15T15:06:41.890Z,100277.36
2017-09-15T15:09:14.467Z,100282.20
2017-09-15T15:11:45.482Z,100280.72
2017-09-15T15:14:17.283Z,100277.17
2017-09-15T15:16:47.887Z,100279.23
2017-09-15T15:19:19.729Z,100283.28
2017-09-15T15:21:52.027Z,100284.23
2017-09-15T15:24:24.033Z,100286.59
2017-09-15T15:26:56.760Z,100281.47
2017-09-15T15:29:29.790Z,100282.58
2017-09-15T15:32:02.574Z,100278.59
2017-09-15T15:34:34.377Z,100278.72
2017-09-15T15:37:06.593Z,100279.61
2017-09-15T15:39:44.068Z,100273.63
2017-09-15T15:42:17.330Z,100270.76
2017-09-15T15:44:47.963Z,100276.53
2017-09-15T15:47:19.139Z,100275.91
2017-09-15T15:49:50.620Z,100277.14
2017-09-15T15:52:22.748Z,100274.26
2017-09-15T15:54:55.429Z,100278.61
2017-09-15T15:57:28.363Z,100279.66
2017-09-15T15:59:59.768Z,100280.72
2017-09-15T16:02:30.523Z,100276.96
2017-09-15T16:05:01.309Z,100277.44
2017-09-15T16:07:35.673Z,100279.20
2017-09-15T16:10:08.483Z,100281.22
2017-09-15T16:12:43.124Z,100279.45
2017-09-15T16:15:15.355Z,100275.22
2017-09-15T16:17:47.282Z,100284.34
2017-09-15T16:20:20.118Z,100275.22
2017-09-15T16:22:59.352Z,100274.27
2017-09-15T16:25:31.360Z,100280.80
2017-09-15T16:28:06.986Z,100276.74
2017-09-15T16:30:39.297Z,100280.69
2017-09-15T16:33:12.998Z,100276.17
2017-09-15T16:35:45.883Z,100276.38
2017-09-15T16:38:24.611Z,100276.62
2017-09-15T16:41:00.790Z,100276.28
2017-09-15T16:43:39.714Z,100272.70
2017-09-15T16:46:17.372Z,100275.91
2017-09-15T16:48:55.144Z,100276.09
2017-09-15T16:51:27.593Z,100273.69
2017-09-15T16:53:59.855Z,100273.52
2017-09-15T16:56:31.895Z,100271.61
2017-09-15T16:59:03.462Z,100275.14
2017-09-15T17:01:38.068Z,100275.39
2017-09-15T17:04:11.221Z,100279.51
2017-09-15T17:06:43.823Z,100277.89
2017-09-15T17:09:15.303Z,100281.58
2017-09-15T17:11:47.154Z,100287.87
2017-09-15T17:14:18.641Z,100281.11
2017-09-15T17:16:49.877Z,100286.61
2017-09-15T17:19:22.410Z,100290.67
2017-09-15T17:21:55.401Z,100286.62
2017-09-15T17:24:28.397Z,100280.80
2017-09-15T17:27:01.838Z,100287.41
2017-09-15T17:29:34.769Z,100295.36
2017-09-15T17:32:08.472Z,100294.36
2017-09-15T17:34:42.771Z,100299.73
2017-09-15T17:37:15.093Z,100300.03
2017-09-15T17:39:47.705Z,100303.20
2017-09-15T17:42:20.546Z,100295.73
2017-09-15T17:44:52.720Z,100303.64
2017-09-15T17:47:27.953Z,100300.53
2017-09-15T17:50:00.388Z,100299.88
2017-09-15T17:52:37.444Z,100304.43
2017-09-15T17:55:15.651Z,100302.13
2017-09-15T17:57:49.734Z,100300.25
2017-09-15T18:00:19.153Z,100301.50
2017-09-15T18:02:49.612Z,100306.44
2017-09-15T18:05:19.906Z,100307.66
2017-09-15T18:07:51.744Z,100308.80
2017-09-15T18:10:23.455Z,100316.42
2017-09-15T18:12:55.856Z,100313.55
2017-09-15T18:15:28.039Z,100315.30
2017-09-15T18:18:01.545Z,100315.50
2017-09-15T18:20:32.622Z,100316.20
2017-09-15T18:23:05.128Z,100316.02
2017-09-15T18:25:37.755Z,100319.67
2017-09-15T18:28:08.012Z,100319.08
2017-09-15T18:30:40.257Z,100319.41
2017-09-15T18:33:11.464Z,100326.59
2017-09-15T18:35:49.387Z,100325.58
2017-09-15T18:38:21.483Z,100329.70
2017-09-15T18:40:53.460Z,100327.42
2017-09-15T18:43:26.095Z,100325.11
2017-09-15T18:45:59.173Z,100320.72
2017-09-15T18:48:30.230Z,100325.34
2017-09-15T18:51:03.934Z,100327.73
2017-09-15T18:53:36.756Z,100326.32
2017-09-15T18:56:10.511Z,100327.94
2017-09-15T18:58:42.094Z,100323.93
2017-09-15T19:01:16.995Z,100329.39
2017-09-15T19:03:48.680Z,100329.97
2017-09-15T19:06:20.444Z,100332.00
2017-09-15T19:08:52.933Z,100330.48
2017-09-15T19:11:23.742Z,100327.34
2017-09-15T19:13:57.177Z,100332.30
2017-09-15T19:16:30.327Z,100333.38
2017-09-15T19:19:04.168Z,100331.88
2017-09-15T19:21:36.708Z,100333.52
2017-09-15T19:24:08.684Z,100329.03
2017-09-15T19:26:44.743Z,100334.41
2017-09-15T19:29:18.829Z,100339.31
2017-09-15T19:31:51.439Z,100344.71
2017-09-15T19:34:23.387Z,100344.98
2017-09-15T19:37:03.346Z,100344.77
2017-09-15T19:39:35.703Z,100349.28
2017-09-15T19:42:10.797Z,100349.55
2017-09-15T19:44:43.452Z,100349.40
2017-09-15T19:47:20.888Z,100349.06
2017-09-15T19:49:51.808Z,100350.20
2017-09-15T19:52:25.224Z,100345.66
2017-09-15T19:54:56.766Z,100350.09
2017-09-15T19:57:32.882Z,100346.82
2017-09-15T20:00:06.506Z,100347.80
2017-09-15T20:02:38.374Z,100338.56
2017-09-15T20:05:09.892Z,100337.84
2017-09-15T20:07:43.401Z,100339.74
2017-09-15T20:10:15.514Z,100335.26
2017-09-15T20:12:47.564Z,100335.52
2017-09-15T20:15:20.281Z,100331.70
2017-09-15T20:17:55.455Z,100337.49
2017-09-15T20:20:29.460Z,100338.01
2017-09-15T20:23:01.834Z,100341.61
2017-09-15T20:25:33.727Z,100340.06
2017-09-15T20:28:05.846Z,100338.59
2017-09-15T20:30:37.531Z,100339.05
2017-09-15T20:33:10.317Z,100335.91
2017-09-15T20:35:43.694Z,100338.22
2017-09-15T20:38:17.479Z,100339.61
2017-09-15T20:40:50.135Z,100344.06
2017-09-15T20:43:22.175Z,100341.69
2017-09-15T20:45:53.395Z,100340.55
2017-09-15T20:48:25.693Z,100338.95
2017-09-15T20:50:56.858Z,100343.38
2017-09-15T20:53:29.122Z,100347.05
2017-09-15T20:56:02.657Z,100345.13
2017-09-15T20:58:39.127Z,100352.19
2017-09-15T21:01:12.321Z,100351.43
2017-09-15T21:03:45.298Z,100354.67
2017-09-15T21:06:17.414Z,100352.61
2017-09-15T21:08:49.442Z,100353.99
2017-09-15T21:11:19.839Z,100352.85
2017-09-15T21:13:51.507Z,100362.08
2017-09-15T21:16:22.536Z,100364.44
2017-09-15T21:18:52.291Z,100367.58
2017-09-15T21:21:26.278Z,100370.34
2017-09-15T21:23:59.455Z,100367.89
2017-09-15T21:26:30.639Z,100367.98
2017-09-15T21:29:05.724Z,100363.39
2017-09-15T21:31:38.738Z,100373.38
2017-09-15T21:34:10.514Z,100367.09
2017-09-15T21:36:42.385Z,100369.09
2017-09-15T21:39:16.437Z,100371.67
2017-09-15T21:41:48.216Z,100367.53
2017-09-15T21:44:22.800Z,100368.09
2017-09-15T21:46:56.280Z,100363.97
2017-09-15T21:49:28.953Z,100364.54
2017-09-15T21:52:03.033Z,100366.02
2017-09-15T21:54:36.026Z,100364.83
2017-09-15T21:57:08.527Z,100358.13
2017-09-15T21:59:39.214Z,100356.08
2017-09-15T22:02:18.375Z,100364.03
2017-09-15T22:04:49.623Z,100360.17
2017-09-15T22:07:21.175Z,100365.92
2017-09-15T22:09:52.923Z,100361.84
2017-09-15T22:12:23.716Z,100359.84
2017-09-15T22:14:55.846Z,100356.48
2017-09-15T22:17:28.352Z,100361.73
2017-09-15T22:20:02.663Z,100365.27
2017-09-15T22:22:34.193Z,100364.95
2017-09-15T22:25:05.935Z,100359.53
2017-09-15T22:27:36.545Z,100360.47
2017-09-15T22:30:08.165Z,100361.02
2017-09-15T22:32:38.619Z,100362.50
2017-09-15T22:35:10.570Z,100361.37
2017-09-15T22:37:44.314Z,100363.07
2017-09-15T22:40:16.784Z,100362.81
2017-09-15T22:42:50.170Z,100358.73
2017-09-15T22:45:22.366Z,100359.23
2017-09-15T22:47:53.691Z,100364.02
2017-09-15T22:50:25.666Z,100368.47
2017-09-15T22:52:58.076Z,100369.50
2017-09-15T22:55:32.182Z,100365.27
2017-09-15T22:58:07.881Z,100363.44
2017-09-15T23:00:42.680Z,100362.93
2017-09-15T23:03:14.159Z,100361.83
2017-09-15T23:05:47.585Z,100364.97
2017-09-15T23:08:20.427Z,100365.20
2017-09-15T23:10:51.649Z,100362.67
2017-09-15T23:13:22.730Z,100361.94
2017-09-15T23:15:55.435Z,100356.47
2017-09-15T23:18:27.841Z,100362.64
2017-09-15T23:21:03.898Z,100355.89
2017-09-15T23:23:36.287Z,100358.14
2017-09-15T23:26:07.398Z,100356.58
2017-09-15T23:28:39.981Z,100358.00
2017-09-15T23:31:13.404Z,100357.19
2017-09-15T23:33:46.621Z,100359.89
2017-09-15T23:36:18.672Z,100355.30
2017-09-15T23:38:50.853Z,100353.32
2017-09-15T23:41:22.802Z,100356.03
2017-09-15T23:43:51.447Z,100357.77
2017-09-15T23:46:20.093Z,100349.43
2017-09-15T23:48:50.814Z,100354.20
2017-09-15T23:51:22.038Z,100350.85
2017-09-15T23:53:52.944Z,100352.68
2017-09-15T23:56:24.672Z,100353.64
2017-09-15T23:58:57.498Z,100349.89
